createdAt,value
2019-02-21T00:01:01.521Z,4.30
2019-02-21T00:03:29.992Z,4.30
2019-02-21T00:05:58.332Z,4.30
2019-02-21T00:08:26.664Z,4.30
2019-02-21T00:10:55.173Z,4.30
2019-02-21T00:13:23.662Z,4.30
2019-02-21T00:15:52.005Z,4.20
2019-02-21T00:18:20.523Z,4.30
2019-02-21T00:20:48.983Z,4.30
2019-02-21T00:23:17.377Z,4.20
2019-02-21T00:25:45.744Z,4.30
2019-02-21T00:28:14.331Z,4.30
2019-02-21T00:30:42.651Z,4.20
2019-02-21T00:33:11.001Z,4.20
2019-02-21T00:35:39.387Z,4.20
2019-02-21T00:38:07.886Z,4.20
2019-02-21T00:40:36.201Z,4.20
2019-02-21T00:43:04.700Z,4.20
2019-02-21T00:45:33.265Z,4.10
2019-02-21T00:48:01.600Z,4.20
2019-02-21T00:50:29.941Z,4.10
2019-02-21T00:52:58.295Z,4.10
2019-02-21T00:55:27.901Z,4.10
2019-02-21T00:57:56.630Z,4.10
2019-02-21T01:00:24.959Z,4.00
2019-02-21T01:02:53.296Z,4.10
2019-02-21T01:05:21.680Z,4.20
2019-02-21T01:07:50.257Z,4.20
2019-02-21T01:10:18.716Z,4.20
2019-02-21T01:12:47.209Z,4.20
2019-02-21T01:15:15.521Z,4.20
2019-02-21T01:17:43.869Z,4.20
2019-02-21T01:20:12.496Z,4.20
2019-02-21T01:22:40.999Z,4.10
2019-02-21T01:25:09.463Z,4.10
2019-02-21T01:27:37.785Z,4.10
2019-02-21T01:30:07.368Z,4.00
2019-02-21T01:32:36.031Z,4.00
2019-02-21T01:35:04.966Z,4.00
2019-02-21T01:37:33.492Z,4.00
2019-02-21T01:40:01.893Z,4.00
2019-02-21T01:42:30.209Z,3.90
2019-02-21T01:44:59.088Z,4.00
2019-02-21T01:47:27.397Z,4.00
2019-02-21T01:49:56.008Z,4.00
2019-02-21T01:52:24.396Z,4.10
2019-02-21T01:54:52.712Z,4.10
2019-02-21T01:57:21.219Z,4.10
2019-02-21T01:59:49.551Z,4.10
2019-02-21T02:02:18.128Z,4.10
2019-02-21T02:04:46.464Z,4.20
2019-02-21T02:07:14.848Z,4.10
2019-02-21T02:09:43.258Z,4.10
2019-02-21T02:12:12.113Z,4.10
2019-02-21T02:14:40.866Z,4.10
2019-02-21T02:17:09.452Z,4.00
2019-02-21T02:19:37.763Z,4.00
2019-02-21T02:22:06.099Z,4.10
2019-02-21T02:24:34.584Z,4.10
2019-02-21T02:27:02.926Z,4.00
2019-02-21T02:29:31.409Z,4.00
2019-02-21T02:31:59.994Z,4.10
2019-02-21T02:34:28.479Z,4.10
2019-02-21T02:36:57.064Z,4.00
2019-02-21T02:39:25.457Z,4.10
2019-02-21T02:41:53.922Z,4.10
2019-02-21T02:44:22.419Z,4.10
2019-02-21T02:46:50.900Z,4.10
2019-02-21T02:49:19.324Z,4.10
2019-02-21T02:51:47.812Z,4.10
2019-02-21T02:54:16.388Z,4.10
2019-02-21T02:56:44.799Z,4.10
2019-02-21T02:59:13.187Z,4.10
2019-02-21T03:01:42.024Z,4.00
2019-02-21T03:04:10.532Z,4.00
2019-02-21T03:06:39.121Z,3.90
2019-02-21T03:09:09.097Z,3.90
2019-02-21T03:11:37.501Z,3.90
2019-02-21T03:14:06.372Z,3.80
2019-02-21T03:16:34.693Z,3.80
2019-02-21T03:19:03.105Z,3.80
2019-02-21T03:21:31.608Z,3.80
2019-02-21T03:24:00.015Z,3.80
2019-02-21T03:26:28.351Z,3.80
2019-02-21T03:28:57.346Z,3.80
2019-02-21T03:31:25.754Z,3.80
2019-02-21T03:33:54.145Z,3.80
2019-02-21T03:36:22.747Z,3.70
2019-02-21T03:38:51.129Z,3.70
2019-02-21T03:41:19.735Z,3.70
2019-02-21T03:43:48.329Z,3.60
2019-02-21T03:46:17.192Z,3.60
2019-02-21T03:48:45.780Z,3.60
2019-02-21T03:51:14.298Z,3.60
2019-02-21T03:53:43.055Z,3.60
2019-02-21T03:56:11.390Z,3.60
2019-02-21T03:58:39.937Z,3.60
2019-02-21T04:01:08.437Z,3.60
2019-02-21T04:03:36.980Z,3.60
2019-02-21T04:06:05.614Z,3.60
2019-02-21T04:08:33.935Z,3.60
2019-02-21T04:11:02.610Z,3.60
2019-02-21T04:13:31.272Z,3.60
2019-02-21T04:15:59.852Z,3.60
2019-02-21T04:18:28.255Z,3.50
2019-02-21T04:20:56.584Z,3.50
2019-02-21T04:23:24.910Z,3.40
2019-02-21T04:25:53.409Z,3.40
2019-02-21T04:28:21.971Z,3.50
2019-02-21T04:30:50.372Z,3.50
2019-02-21T04:33:18.857Z,3.50
2019-02-21T04:35:47.359Z,3.40
2019-02-21T04:38:15.666Z,3.40
2019-02-21T04:40:44.184Z,3.40
2019-02-21T04:43:12.737Z,3.40
2019-02-21T04:45:41.095Z,3.40
2019-02-21T04:48:09.417Z,3.50
2019-02-21T04:50:38.346Z,3.40
2019-02-21T04:53:06.856Z,3.40
2019-02-21T04:55:35.165Z,3.40
2019-02-21T04:58:03.843Z,3.40
2019-02-21T05:00:32.403Z,3.40
2019-02-21T05:03:00.893Z,3.40
2019-02-21T05:05:29.213Z,3.40
2019-02-21T05:07:57.716Z,3.40
2019-02-21T05:10:26.037Z,3.40
2019-02-21T05:12:54.658Z,3.30
2019-02-21T05:15:22.998Z,3.20
2019-02-21T05:17:51.627Z,3.20
2019-02-21T05:20:20.487Z,3.20
2019-02-21T05:22:48.805Z,3.20
2019-02-21T05:25:17.315Z,3.10
2019-02-21T05:27:47.140Z,3.10
2019-02-21T05:30:17.273Z,3.10
2019-02-21T05:32:52.926Z,3.10
2019-02-21T05:35:25.871Z,3.10
2019-02-21T05:37:58.324Z,3.10
2019-02-21T05:40:28.740Z,3.10
2019-02-21T05:43:17.051Z,3.20
2019-02-21T05:45:47.309Z,3.10
2019-02-21T05:48:23.158Z,3.10
2019-02-21T05:50:55.662Z,3.10
2019-02-21T05:53:31.283Z,3.10
2019-02-21T05:56:04.164Z,3.20
2019-02-21T05:58:34.136Z,3.20
2019-02-21T06:01:04.172Z,3.20
2019-02-21T06:03:50.570Z,3.20
2019-02-21T06:06:29.717Z,3.20
2019-02-21T06:09:16.124Z,3.20
2019-02-21T06:11:48.570Z,3.20
2019-02-21T06:14:24.962Z,3.20
2019-02-21T06:17:10.051Z,3.20
2019-02-21T06:19:48.044Z,3.20
2019-02-21T06:22:17.481Z,3.20
2019-02-21T06:25:05.485Z,3.20
2019-02-21T06:27:41.539Z,3.20
2019-02-21T06:30:21.059Z,3.20
2019-02-21T06:32:49.627Z,3.20
2019-02-21T06:35:17.973Z,3.10
2019-02-21T06:37:46.345Z,3.10
2019-02-21T06:40:14.856Z,3.10
2019-02-21T06:42:43.175Z,3.10
2019-02-21T06:45:11.516Z,3.10
2019-02-21T06:47:40.342Z,3.10
2019-02-21T06:50:08.845Z,3.20
2019-02-21T06:52:37.442Z,3.20
2019-02-21T06:55:06.089Z,3.20
2019-02-21T06:57:34.593Z,3.30
2019-02-21T07:00:03.076Z,3.30
2019-02-21T07:02:31.799Z,3.40
2019-02-21T07:05:00.224Z,3.40
2019-02-21T07:07:28.600Z,3.50
2019-02-21T07:09:56.912Z,3.50
2019-02-21T07:12:25.275Z,3.60
2019-02-21T07:14:53.584Z,3.60
2019-02-21T07:17:22.267Z,3.70
2019-02-21T07:19:50.640Z,3.70
2019-02-21T07:22:22.355Z,3.80
2019-02-21T07:24:50.994Z,3.90
2019-02-21T07:27:19.401Z,4.00
2019-02-21T07:29:47.805Z,4.10
2019-02-21T07:32:16.219Z,4.20
2019-02-21T07:34:44.619Z,4.30
2019-02-21T07:37:18.615Z,4.40
2019-02-21T07:39:43.777Z,4.40
2019-02-21T07:42:12.539Z,4.50
2019-02-21T07:44:41.179Z,4.50
2019-02-21T07:47:09.538Z,4.60
2019-02-21T07:49:37.852Z,4.60
2019-02-21T07:52:06.195Z,4.70
2019-02-21T07:54:34.520Z,4.80
2019-02-21T07:57:02.850Z,4.80
2019-02-21T07:59:31.172Z,5.00
2019-02-21T08:01:59.524Z,5.00
2019-02-21T08:04:28.187Z,5.20
2019-02-21T08:06:56.592Z,5.20
2019-02-21T08:09:27.822Z,5.30
2019-02-21T08:11:55.396Z,5.40
2019-02-21T08:14:23.700Z,5.50
2019-02-21T08:16:52.197Z,5.60
2019-02-21T08:19:20.702Z,5.70
2019-02-21T08:21:49.286Z,5.70
2019-02-21T08:24:17.890Z,5.80
2019-02-21T08:26:46.226Z,5.90
2019-02-21T08:29:14.714Z,6.00
2019-02-21T08:31:43.044Z,6.10
2019-02-21T08:34:16.169Z,6.20
2019-02-21T08:36:44.959Z,6.30
2019-02-21T08:39:13.300Z,6.40
2019-02-21T08:41:41.944Z,6.50
2019-02-21T08:44:10.520Z,6.60
2019-02-21T08:46:38.861Z,6.70
2019-02-21T08:49:07.346Z,6.80
2019-02-21T08:51:35.692Z,6.90
2019-02-21T08:54:05.651Z,7.00
2019-02-21T08:56:34.668Z,7.00
2019-02-21T08:59:03.220Z,7.10
2019-02-21T09:01:31.695Z,7.20
2019-02-21T09:04:10.138Z,7.30
2019-02-21T09:06:30.263Z,7.40
2019-02-21T09:08:58.590Z,7.50
2019-02-21T09:11:27.364Z,7.60
2019-02-21T09:13:55.975Z,7.70
2019-02-21T09:16:24.727Z,7.80
2019-02-21T09:18:53.306Z,7.90
2019-02-21T09:21:21.643Z,8.00
2019-02-21T09:23:50.228Z,8.00
2019-02-21T09:26:21.464Z,8.10
2019-02-21T09:28:48.895Z,8.20
2019-02-21T09:31:17.227Z,8.30
2019-02-21T09:33:45.553Z,8.40
2019-02-21T09:36:13.958Z,8.40
2019-02-21T09:38:42.273Z,8.50
2019-02-21T09:41:10.586Z,8.60
2019-02-21T09:43:39.089Z,8.60
2019-02-21T09:46:07.707Z,8.70
2019-02-21T09:48:36.032Z,8.70
2019-02-21T09:51:04.604Z,8.80
2019-02-21T09:53:33.095Z,8.90
2019-02-21T09:56:01.436Z,8.90
2019-02-21T09:58:30.084Z,9.00
2019-02-21T10:00:58.387Z,9.10
2019-02-21T10:03:26.788Z,9.20
2019-02-21T10:05:55.145Z,9.20
2019-02-21T10:08:23.762Z,9.30
2019-02-21T10:10:52.243Z,9.20
2019-02-21T10:13:20.741Z,9.30
2019-02-21T10:15:49.079Z,9.40
2019-02-21T10:18:17.586Z,9.40
2019-02-21T10:20:45.983Z,9.40
2019-02-21T10:23:14.323Z,9.50
2019-02-21T10:25:42.839Z,9.60
2019-02-21T10:28:11.346Z,9.80
2019-02-21T10:30:39.706Z,10.00
2019-02-21T10:33:08.213Z,10.00
2019-02-21T10:35:36.762Z,10.20
2019-02-21T10:38:05.178Z,10.50
2019-02-21T10:40:33.655Z,10.70
2019-02-21T10:43:02.487Z,10.70
2019-02-21T10:45:30.973Z,10.90
2019-02-21T10:47:59.314Z,11.00
2019-02-21T10:50:27.661Z,11.20
2019-02-21T10:52:56.057Z,11.20
2019-02-21T10:55:24.608Z,11.30
2019-02-21T10:57:53.124Z,11.30
2019-02-21T11:00:29.644Z,11.40
2019-02-21T11:02:58.174Z,11.40
2019-02-21T11:05:26.505Z,11.40
2019-02-21T11:07:54.904Z,11.30
2019-02-21T11:10:30.536Z,11.30
2019-02-21T11:12:58.876Z,11.20
2019-02-21T11:15:27.223Z,11.20
2019-02-21T11:17:55.570Z,11.20
2019-02-21T11:20:24.168Z,11.30
2019-02-21T11:22:52.653Z,11.30
2019-02-21T11:25:21.076Z,11.30
2019-02-21T11:27:49.471Z,11.40
2019-02-21T11:30:21.339Z,11.30
2019-02-21T11:32:49.958Z,11.30
2019-02-21T11:35:18.578Z,11.20
2019-02-21T11:37:47.605Z,11.20
2019-02-21T11:40:17.071Z,11.10
2019-02-21T11:42:45.616Z,11.10
2019-02-21T11:45:15.603Z,11.10
2019-02-21T11:47:44.098Z,11.10
2019-02-21T11:50:14.376Z,11.00
2019-02-21T11:52:42.879Z,11.00
2019-02-21T11:55:15.812Z,11.00
2019-02-21T11:57:44.156Z,11.00
2019-02-21T12:00:15.694Z,11.10
2019-02-21T12:02:44.005Z,11.20
2019-02-21T12:05:17.568Z,11.30
2019-02-21T12:07:42.728Z,11.50
2019-02-21T12:10:11.998Z,11.90
2019-02-21T12:12:40.601Z,12.40
2019-02-21T12:15:12.180Z,12.80
2019-02-21T12:17:42.822Z,13.30
2019-02-21T12:20:17.928Z,13.60
2019-02-21T12:22:46.381Z,13.60
2019-02-21T12:25:20.062Z,13.50
2019-02-21T12:27:48.394Z,13.50
2019-02-21T12:30:20.492Z,13.50
2019-02-21T12:32:48.840Z,13.30
2019-02-21T12:35:28.822Z,13.20
2019-02-21T12:37:47.224Z,13.10
2019-02-21T12:40:19.786Z,13.00
2019-02-21T12:42:48.130Z,13.00
2019-02-21T12:45:19.748Z,13.10
2019-02-21T12:47:53.035Z,13.00
2019-02-21T12:50:18.127Z,13.00
2019-02-21T12:52:46.447Z,13.00
2019-02-21T12:55:26.414Z,13.10
2019-02-21T12:57:45.055Z,13.10
2019-02-21T13:00:21.872Z,13.30
2019-02-21T13:02:50.370Z,13.40
2019-02-21T13:05:18.712Z,13.50
2019-02-21T13:07:47.194Z,13.50
2019-02-21T13:10:21.667Z,13.40
2019-02-21T13:12:50.240Z,13.40
2019-02-21T13:15:19.061Z,13.30
2019-02-21T13:17:47.435Z,13.20
2019-02-21T13:20:15.827Z,13.30
2019-02-21T13:22:44.266Z,13.30
2019-02-21T13:25:14.431Z,13.80
2019-02-21T13:27:43.032Z,14.50
2019-02-21T13:30:16.415Z,14.70
2019-02-21T13:32:44.786Z,14.70
2019-02-21T13:35:13.885Z,14.50
2019-02-21T13:37:42.243Z,14.30
2019-02-21T13:40:17.143Z,14.10
2019-02-21T13:42:45.645Z,13.80
2019-02-21T13:45:17.435Z,13.60
2019-02-21T13:47:45.345Z,13.60
2019-02-21T13:50:18.707Z,13.60
2019-02-21T13:52:47.398Z,13.40
2019-02-21T13:55:15.777Z,13.30
2019-02-21T13:57:44.299Z,13.20
2019-02-21T14:00:18.024Z,13.20
2019-02-21T14:02:46.545Z,13.20
2019-02-21T14:05:14.882Z,13.20
2019-02-21T14:07:43.397Z,13.00
2019-02-21T14:10:13.066Z,12.90
2019-02-21T14:12:41.411Z,12.70
2019-02-21T14:15:12.441Z,12.70
2019-02-21T14:17:40.815Z,12.70
2019-02-21T14:20:09.657Z,12.80
2019-02-21T14:22:38.196Z,12.90
2019-02-21T14:25:09.135Z,12.90
2019-02-21T14:27:37.545Z,12.80
2019-02-21T14:30:11.838Z,12.80
2019-02-21T14:32:40.476Z,12.60
2019-02-21T14:35:11.129Z,12.60
2019-02-21T14:37:39.696Z,12.50
2019-02-21T14:40:10.805Z,12.50
2019-02-21T14:42:39.125Z,12.40
2019-02-21T14:45:16.523Z,12.30
2019-02-21T14:47:45.218Z,12.30
2019-02-21T14:50:13.808Z,12.30
2019-02-21T14:52:42.132Z,12.40
2019-02-21T14:55:14.971Z,12.40
2019-02-21T14:57:43.449Z,12.50
2019-02-21T15:00:20.423Z,13.40
2019-02-21T15:02:48.760Z,15.20
2019-02-21T15:05:17.804Z,16.70
2019-02-21T15:07:46.469Z,17.00
2019-02-21T15:10:14.940Z,17.80
2019-02-21T15:12:43.423Z,18.60
2019-02-21T15:15:14.686Z,18.80
2019-02-21T15:17:43.182Z,18.70
2019-02-21T15:20:13.352Z,18.70
2019-02-21T15:22:41.740Z,18.60
2019-02-21T15:25:10.076Z,18.00
2019-02-21T15:27:38.720Z,17.50
2019-02-21T15:30:15.942Z,16.30
2019-02-21T15:32:45.109Z,15.30
2019-02-21T15:35:13.804Z,14.40
2019-02-21T15:37:44.678Z,13.90
2019-02-21T15:40:12.421Z,13.50
2019-02-21T15:42:41.053Z,13.20
2019-02-21T15:45:23.377Z,13.00
2019-02-21T15:47:51.138Z,12.70
2019-02-21T15:50:20.161Z,12.60
2019-02-21T15:52:48.823Z,12.50
2019-02-21T15:55:18.689Z,12.50
2019-02-21T15:57:47.192Z,12.40
2019-02-21T16:00:17.526Z,12.40
2019-02-21T16:02:45.980Z,12.40
2019-02-21T16:05:14.545Z,12.30
2019-02-21T16:07:42.883Z,12.20
2019-02-21T16:10:13.848Z,12.10
2019-02-21T16:12:42.972Z,12.10
2019-02-21T16:15:16.232Z,12.10
2019-02-21T16:17:43.350Z,12.00
2019-02-21T16:20:14.293Z,12.00
2019-02-21T16:22:43.164Z,12.00
2019-02-21T16:25:14.417Z,11.90
2019-02-21T16:27:42.746Z,11.80
2019-02-21T16:30:12.702Z,11.80
2019-02-21T16:32:41.301Z,11.70
2019-02-21T16:35:11.763Z,11.70
2019-02-21T16:37:40.115Z,11.70
2019-02-21T16:40:13.438Z,11.70
2019-02-21T16:42:41.765Z,11.60
2019-02-21T16:45:12.701Z,11.60
2019-02-21T16:47:41.027Z,11.50
2019-02-21T16:50:14.388Z,11.50
2019-02-21T16:52:42.919Z,11.50
2019-02-21T16:55:22.633Z,11.50
2019-02-21T16:57:51.206Z,11.40
2019-02-21T17:00:21.408Z,11.40
2019-02-21T17:02:49.794Z,11.40
2019-02-21T17:05:18.100Z,11.40
2019-02-21T17:07:46.971Z,11.30
2019-02-21T17:10:16.144Z,11.30
2019-02-21T17:12:44.519Z,11.30
2019-02-21T17:15:19.366Z,11.30
2019-02-21T17:17:47.693Z,11.20
2019-02-21T17:20:23.997Z,11.20
2019-02-21T17:22:52.479Z,11.20
2019-02-21T17:25:21.188Z,11.10
2019-02-21T17:27:50.478Z,11.10
2019-02-21T17:30:19.290Z,11.10
2019-02-21T17:32:48.011Z,11.10
2019-02-21T17:35:16.516Z,11.10
2019-02-21T17:37:45.012Z,11.10
2019-02-21T17:40:21.029Z,11.10
2019-02-21T17:42:49.349Z,11.00
2019-02-21T17:45:18.283Z,11.00
2019-02-21T17:47:46.782Z,11.00
2019-02-21T17:50:19.152Z,11.00
2019-02-21T17:52:47.648Z,11.00
2019-02-21T17:55:16.715Z,11.00
2019-02-21T17:57:45.344Z,11.00
2019-02-21T18:00:32.792Z,10.90
2019-02-21T18:03:01.110Z,10.90
2019-02-21T18:05:29.727Z,10.90
2019-02-21T18:07:58.586Z,10.90
2019-02-21T18:10:26.914Z,10.80
2019-02-21T18:12:55.272Z,10.80
2019-02-21T18:15:24.531Z,10.80
2019-02-21T18:17:53.483Z,10.80
2019-02-21T18:20:21.809Z,10.70
2019-02-21T18:22:50.585Z,10.70
2019-02-21T18:25:25.341Z,10.60
2019-02-21T18:27:53.810Z,10.60
2019-02-21T18:30:22.605Z,10.60
2019-02-21T18:32:51.048Z,10.70
2019-02-21T18:35:19.446Z,10.60
2019-02-21T18:37:48.100Z,10.70
2019-02-21T18:40:20.823Z,10.70
2019-02-21T18:42:49.487Z,10.70
2019-02-21T18:45:18.403Z,10.70
2019-02-21T18:47:46.821Z,10.60
2019-02-21T18:50:18.046Z,10.60
2019-02-21T18:52:46.398Z,10.60
2019-02-21T18:55:15.020Z,10.60
2019-02-21T18:57:43.492Z,10.60
2019-02-21T19:00:26.141Z,10.60
2019-02-21T19:02:54.884Z,10.60
2019-02-21T19:05:23.294Z,10.60
2019-02-21T19:08:00.774Z,10.50
2019-02-21T19:10:23.385Z,10.50
2019-02-21T19:12:52.151Z,10.50
2019-02-21T19:15:21.437Z,10.40
2019-02-21T19:17:49.738Z,10.40
2019-02-21T19:20:19.204Z,10.40
2019-02-21T19:22:47.714Z,10.40
2019-02-21T19:25:16.250Z,10.30
2019-02-21T19:27:44.601Z,10.30
2019-02-21T19:30:22.046Z,10.30
2019-02-21T19:32:51.277Z,10.30
2019-02-21T19:35:19.955Z,10.40
2019-02-21T19:37:48.375Z,10.30
2019-02-21T19:40:17.062Z,10.20
2019-02-21T19:42:45.766Z,10.30
2019-02-21T19:45:14.155Z,10.30
2019-02-21T19:47:42.499Z,10.30
2019-02-21T19:50:10.993Z,10.20
2019-02-21T19:52:39.655Z,10.20
2019-02-21T19:55:11.610Z,10.20
2019-02-21T19:57:40.147Z,10.10
2019-02-21T20:00:12.160Z,10.10
2019-02-21T20:02:40.511Z,10.10
2019-02-21T20:05:09.062Z,10.10
2019-02-21T20:07:37.675Z,10.10
2019-02-21T20:10:07.804Z,10.00
2019-02-21T20:12:36.237Z,10.10
2019-02-21T20:15:07.001Z,10.10
2019-02-21T20:17:35.360Z,10.10
2019-02-21T20:20:06.542Z,10.00
2019-02-21T20:22:34.891Z,10.00
2019-02-21T20:25:03.690Z,10.00
2019-02-21T20:27:32.370Z,10.00
2019-02-21T20:30:01.131Z,9.90
2019-02-21T20:32:29.912Z,10.00
2019-02-21T20:34:58.329Z,9.90
2019-02-21T20:37:26.848Z,10.00
2019-02-21T20:39:55.267Z,9.90
2019-02-21T20:42:23.814Z,9.90
2019-02-21T20:44:52.367Z,9.90
2019-02-21T20:47:20.762Z,9.90
2019-02-21T20:49:49.195Z,9.90
2019-02-21T20:52:17.519Z,9.90
2019-02-21T20:54:46.367Z,9.80
2019-02-21T20:57:14.994Z,9.80
2019-02-21T20:59:43.335Z,9.70
2019-02-21T21:02:11.729Z,9.70
2019-02-21T21:04:40.667Z,9.60
2019-02-21T21:07:09.289Z,9.50
2019-02-21T21:09:37.700Z,9.50
2019-02-21T21:12:06.235Z,9.50
2019-02-21T21:14:34.582Z,9.40
2019-02-21T21:17:03.018Z,9.40
2019-02-21T21:19:31.413Z,9.50
2019-02-21T21:21:59.974Z,9.40
2019-02-21T21:24:28.336Z,9.40
2019-02-21T21:26:56.665Z,9.40
2019-02-21T21:29:25.148Z,9.30
2019-02-21T21:31:53.718Z,9.30
2019-02-21T21:34:22.045Z,9.30
2019-02-21T21:36:50.553Z,9.20
2019-02-21T21:39:18.864Z,9.10
2019-02-21T21:41:47.498Z,9.10
2019-02-21T21:44:16.107Z,9.00
2019-02-21T21:46:46.511Z,9.00
2019-02-21T21:49:14.971Z,9.00
2019-02-21T21:51:43.483Z,8.90
2019-02-21T21:54:11.847Z,8.90
2019-02-21T21:56:40.627Z,8.90
2019-02-21T21:59:09.580Z,8.90
2019-02-21T22:01:38.214Z,8.90
2019-02-21T22:04:06.604Z,8.90
2019-02-21T22:06:35.002Z,8.90
2019-02-21T22:09:05.065Z,8.90
2019-02-21T22:11:33.906Z,8.80
2019-02-21T22:14:02.317Z,8.80
2019-02-21T22:16:30.874Z,8.70
2019-02-21T22:18:59.575Z,8.70
2019-02-21T22:21:27.904Z,8.60
2019-02-21T22:23:56.725Z,8.60
2019-02-21T22:26:25.175Z,8.50
2019-02-21T22:28:53.668Z,8.50
2019-02-21T22:31:21.999Z,8.40
2019-02-21T22:33:50.339Z,8.40
2019-02-21T22:36:19.610Z,8.30
2019-02-21T22:38:48.145Z,8.30
2019-02-21T22:41:16.465Z,8.30
2019-02-21T22:43:44.772Z,8.30
2019-02-21T22:46:14.950Z,8.30
2019-02-21T22:48:47.286Z,8.30
2019-02-21T22:51:13.778Z,8.30
2019-02-21T22:53:42.094Z,8.30
2019-02-21T22:56:10.593Z,8.30
2019-02-21T22:58:45.025Z,8.30
2019-02-21T23:01:18.948Z,8.30
2019-02-21T23:03:56.281Z,8.30
2019-02-21T23:06:41.054Z,8.30
2019-02-21T23:09:14.131Z,8.20
2019-02-21T23:11:42.636Z,8.20
2019-02-21T23:14:11.180Z,8.20
2019-02-21T23:16:39.538Z,8.20
2019-02-21T23:19:07.860Z,8.20
2019-02-21T23:21:36.522Z,8.20
2019-02-21T23:24:04.894Z,8.20
2019-02-21T23:26:35.205Z,8.20
2019-02-21T23:29:06.620Z,8.20
2019-02-21T23:31:36.585Z,8.20
2019-02-21T23:34:06.643Z,8.10
2019-02-21T23:36:36.602Z,8.10
2019-02-21T23:39:05.275Z,8.10
2019-02-21T23:41:33.741Z,8.10
2019-02-21T23:44:02.094Z,8.10
2019-02-21T23:46:30.461Z,8.20
2019-02-21T23:48:58.805Z,8.20
2019-02-21T23:51:27.121Z,8.20
2019-02-21T23:54:02.760Z,8.20
2019-02-21T23:56:25.773Z,8.20
2019-02-21T23:58:54.218Z,8.20
